N6PC TJCP-TFFJ
Flight info
| Callsign | N6PC |
|---|---|
| Flight time | N/A |
| Altitude | 9000 |
| Route | STT DCT PASIC DCT LARPP DCT JUICE DCT PJM |
| Aircraft | PC6T/L-SDFGRWY/S |
Departure
| Time | 2026-04-24 01:19 |
|---|---|
| Airport | Benjamin Rivera Noriega Airport (TJCP) |
Arrival
| Time | N/A |
|---|---|
| Airport | St. Jean Airport (TFFJ) |
| Time | Latitude | Longitude | Altitude | Speed | Heading |
|---|---|---|---|---|---|
| 2026-04-24 01:04 | 18.31208 | -65.30373 | 33 ft | 0 kts | 66° |
| 2026-04-24 01:15 | 18.31213 | -65.30367 | 34 ft | 2 kts | 18° |
| 2026-04-24 01:15 | 18.31249 | -65.30389 | 34 ft | 9 kts | 299° |
| 2026-04-24 01:15 | 18.31293 | -65.30466 | 36 ft | 10 kts | 301° |
| 2026-04-24 01:15 | 18.31318 | -65.30510 | 37 ft | 11 kts | 302° |
| 2026-04-24 01:16 | 18.31373 | -65.30605 | 40 ft | 14 kts | 301° |
| 2026-04-24 01:16 | 18.31426 | -65.30695 | 42 ft | 12 kts | 302° |
| 2026-04-24 01:16 | 18.31454 | -65.30704 | 42 ft | 5 kts | 1° |
| 2026-04-24 01:16 | 18.31470 | -65.30685 | 41 ft | 4 kts | 108° |
| 2026-04-24 01:17 | 18.31450 | -65.30651 | 41 ft | 0 kts | 120° |
| 2026-04-24 01:18 | 18.31441 | -65.30634 | 41 ft | 12 kts | 119° |
| 2026-04-24 01:18 | 18.31286 | -65.30370 | 60 ft | 65 kts | 115° |
| 2026-04-24 01:18 | 18.31032 | -65.29974 | 305 ft | 69 kts | 112° |
| 2026-04-24 01:18 | 18.30777 | -65.29548 | 606 ft | 67 kts | 106° |
| 2026-04-24 01:19 | 18.30613 | -65.29091 | 895 ft | 66 kts | 97° |
| 2026-04-24 01:19 | 18.30525 | -65.28664 | 1218 ft | 59 kts | 88° |
| 2026-04-24 01:19 | 18.30512 | -65.28239 | 1495 ft | 59 kts | 79° |
| 2026-04-24 01:19 | 18.30572 | -65.27811 | 1773 ft | 60 kts | 71° |
| 2026-04-24 01:20 | 18.30709 | -65.27398 | 2043 ft | 61 kts | 61° |
| 2026-04-24 01:20 | 18.30912 | -65.27012 | 2319 ft | 60 kts | 53° |
| 2026-04-24 01:20 | 18.31171 | -65.26666 | 2578 ft | 62 kts | 50° |
| 2026-04-24 01:20 | 18.31326 | -65.26227 | 2856 ft | 66 kts | 70° |
| 2026-04-24 01:21 | 18.31438 | -65.25767 | 3193 ft | 66 kts | 70° |
| 2026-04-24 01:21 | 18.31546 | -65.25304 | 3531 ft | 66 kts | 71° |
| 2026-04-24 01:21 | 18.31650 | -65.24837 | 3861 ft | 66 kts | 72° |
| 2026-04-24 01:21 | 18.31752 | -65.24368 | 4176 ft | 67 kts | 72° |
| 2026-04-24 01:22 | 18.31853 | -65.23885 | 4491 ft | 69 kts | 72° |
| 2026-04-24 01:22 | 18.31952 | -65.23393 | 4798 ft | 70 kts | 73° |
| 2026-04-24 01:22 | 18.32049 | -65.22900 | 5106 ft | 70 kts | 73° |
| 2026-04-24 01:22 | 18.32147 | -65.22407 | 5403 ft | 70 kts | 71° |
| 2026-04-24 01:23 | 18.32260 | -65.21900 | 5704 ft | 71 kts | 72° |
| 2026-04-24 01:23 | 18.32371 | -65.21377 | 6058 ft | 76 kts | 72° |
| 2026-04-24 01:23 | 18.32482 | -65.20836 | 6417 ft | 78 kts | 73° |
| 2026-04-24 01:23 | 18.32590 | -65.20282 | 6794 ft | 78 kts | 73° |
| 2026-04-24 01:24 | 18.32696 | -65.19728 | 7160 ft | 80 kts | 73° |
| 2026-04-24 01:24 | 18.32802 | -65.19159 | 7531 ft | 81 kts | 74° |
| 2026-04-24 01:24 | 18.32901 | -65.18613 | 7960 ft | 75 kts | 72° |
| 2026-04-24 01:24 | 18.33007 | -65.18054 | 8285 ft | 80 kts | 75° |
| 2026-04-24 01:25 | 18.33108 | -65.17483 | 8644 ft | 81 kts | 74° |
| 2026-04-24 01:25 | 18.33208 | -65.16910 | 9013 ft | 79 kts | 74° |
| 2026-04-24 01:25 | 18.33333 | -65.16235 | 9046 ft | 110 kts | 77° |
| 2026-04-24 01:25 | 18.33465 | -65.15382 | 9015 ft | 124 kts | 79° |
| 2026-04-24 01:26 | 18.33607 | -65.14462 | 8998 ft | 128 kts | 78° |
| 2026-04-24 01:26 | 18.33754 | -65.13529 | 9000 ft | 129 kts | 78° |
| 2026-04-24 01:26 | 18.33906 | -65.12592 | 8999 ft | 130 kts | 78° |
| 2026-04-24 01:26 | 18.34063 | -65.11649 | 9001 ft | 130 kts | 78° |
| 2026-04-24 01:27 | 18.34219 | -65.10718 | 8998 ft | 130 kts | 78° |
| 2026-04-24 01:27 | 18.34379 | -65.09772 | 8997 ft | 130 kts | 78° |
| 2026-04-24 01:27 | 18.34540 | -65.08826 | 8995 ft | 130 kts | 78° |
| 2026-04-24 01:27 | 18.34699 | -65.07894 | 9000 ft | 130 kts | 78° |
| 2026-04-24 01:28 | 18.34859 | -65.06956 | 9003 ft | 130 kts | 78° |
| 2026-04-24 01:28 | 18.35022 | -65.06004 | 9005 ft | 130 kts | 78° |
| 2026-04-24 01:28 | 18.35184 | -65.05058 | 9004 ft | 131 kts | 78° |
| 2026-04-24 01:28 | 18.35346 | -65.04112 | 9002 ft | 131 kts | 78° |
| 2026-04-24 01:29 | 18.35508 | -65.03169 | 9001 ft | 131 kts | 78° |
| 2026-04-24 01:29 | 18.35586 | -65.02205 | 8985 ft | 132 kts | 95° |
| 2026-04-24 01:29 | 18.35435 | -65.01255 | 8994 ft | 131 kts | 97° |
| 2026-04-24 01:29 | 18.35280 | -65.00309 | 8995 ft | 131 kts | 97° |
| 2026-04-24 01:30 | 18.35126 | -64.99366 | 8992 ft | 131 kts | 97° |
| 2026-04-24 01:30 | 18.34971 | -64.98414 | 8991 ft | 131 kts | 97° |
| 2026-04-24 01:30 | 18.34817 | -64.97469 | 8994 ft | 131 kts | 97° |
| 2026-04-24 01:30 | 18.34664 | -64.96525 | 8993 ft | 131 kts | 97° |
| 2026-04-24 01:31 | 18.34509 | -64.95572 | 8995 ft | 131 kts | 97° |
| 2026-04-24 01:31 | 18.34355 | -64.94617 | 8996 ft | 131 kts | 97° |
| 2026-04-24 01:31 | 18.34200 | -64.93669 | 8995 ft | 131 kts | 97° |
| 2026-04-24 01:31 | 18.34048 | -64.92732 | 8994 ft | 131 kts | 97° |
| 2026-04-24 01:32 | 18.33893 | -64.91775 | 8995 ft | 131 kts | 97° |
| 2026-04-24 01:32 | 18.33739 | -64.90829 | 8998 ft | 131 kts | 97° |
| 2026-04-24 01:32 | 18.33585 | -64.89883 | 8999 ft | 132 kts | 97° |
| 2026-04-24 01:32 | 18.33429 | -64.88920 | 9000 ft | 132 kts | 97° |
| 2026-04-24 01:33 | 18.33273 | -64.87965 | 9000 ft | 132 kts | 96° |
| 2026-04-24 01:33 | 18.33118 | -64.87014 | 9000 ft | 132 kts | 96° |
| 2026-04-24 01:33 | 18.32963 | -64.86057 | 8997 ft | 132 kts | 96° |
| 2026-04-24 01:33 | 18.32807 | -64.85100 | 8996 ft | 132 kts | 97° |
| 2026-04-24 01:34 | 18.32652 | -64.84147 | 8997 ft | 132 kts | 97° |
| 2026-04-24 01:34 | 18.32496 | -64.83193 | 8999 ft | 131 kts | 97° |
| 2026-04-24 01:34 | 18.32342 | -64.82246 | 9000 ft | 131 kts | 97° |
| 2026-04-24 01:34 | 18.32189 | -64.81306 | 8998 ft | 130 kts | 97° |
| 2026-04-24 01:35 | 18.32034 | -64.80353 | 8995 ft | 131 kts | 97° |
| 2026-04-24 01:35 | 18.31880 | -64.79407 | 8994 ft | 132 kts | 97° |
| 2026-04-24 01:35 | 18.31724 | -64.78458 | 8996 ft | 131 kts | 97° |
| 2026-04-24 01:35 | 18.31568 | -64.77501 | 8993 ft | 131 kts | 97° |
| 2026-04-24 01:36 | 18.31415 | -64.76559 | 8997 ft | 131 kts | 97° |
| 2026-04-24 01:36 | 18.31259 | -64.75607 | 8998 ft | 131 kts | 97° |
| 2026-04-24 01:36 | 18.31105 | -64.74664 | 8999 ft | 131 kts | 97° |
| 2026-04-24 01:36 | 18.30952 | -64.73721 | 9003 ft | 131 kts | 96° |
| 2026-04-24 01:37 | 18.30799 | -64.72786 | 9002 ft | 131 kts | 97° |
| 2026-04-24 01:37 | 18.30643 | -64.71828 | 9003 ft | 131 kts | 97° |
| 2026-04-24 01:37 | 18.30487 | -64.70883 | 9005 ft | 131 kts | 97° |
| 2026-04-24 01:37 | 18.30335 | -64.69946 | 9003 ft | 131 kts | 97° |
| 2026-04-24 01:38 | 18.30178 | -64.68990 | 8999 ft | 131 kts | 97° |
| 2026-04-24 01:38 | 18.30024 | -64.68050 | 9002 ft | 131 kts | 97° |
| 2026-04-24 01:38 | 18.29867 | -64.67097 | 9004 ft | 132 kts | 97° |
| 2026-04-24 01:38 | 18.29711 | -64.66145 | 8998 ft | 131 kts | 97° |
| 2026-04-24 01:39 | 18.29557 | -64.65202 | 9003 ft | 132 kts | 97° |
| 2026-04-24 01:39 | 18.29400 | -64.64248 | 9002 ft | 132 kts | 97° |
| 2026-04-24 01:39 | 18.29244 | -64.63296 | 8996 ft | 132 kts | 97° |
| 2026-04-24 01:39 | 18.29088 | -64.62347 | 8999 ft | 132 kts | 97° |
| 2026-04-24 01:40 | 18.28933 | -64.61400 | 8989 ft | 131 kts | 97° |
| 2026-04-24 01:40 | 18.28776 | -64.60442 | 8997 ft | 131 kts | 97° |
| 2026-04-24 01:40 | 18.28620 | -64.59494 | 8996 ft | 131 kts | 97° |
| 2026-04-24 01:40 | 18.28465 | -64.58544 | 8999 ft | 131 kts | 97° |
| 2026-04-24 01:41 | 18.28310 | -64.57604 | 8999 ft | 131 kts | 97° |
| 2026-04-24 01:41 | 18.28155 | -64.56658 | 8999 ft | 131 kts | 97° |
| 2026-04-24 01:41 | 18.27998 | -64.55708 | 8998 ft | 131 kts | 97° |
| 2026-04-24 01:41 | 18.27843 | -64.54764 | 9001 ft | 131 kts | 97° |
| 2026-04-24 01:42 | 18.27686 | -64.53809 | 9000 ft | 132 kts | 97° |
| 2026-04-24 01:42 | 18.27529 | -64.52858 | 8999 ft | 132 kts | 97° |
| 2026-04-24 01:42 | 18.27372 | -64.51903 | 8996 ft | 132 kts | 97° |
| 2026-04-24 01:42 | 18.27214 | -64.50949 | 8998 ft | 132 kts | 97° |
| 2026-04-24 01:43 | 18.27058 | -64.49997 | 8995 ft | 132 kts | 97° |
| 2026-04-24 01:43 | 18.26900 | -64.49040 | 8998 ft | 132 kts | 97° |
| 2026-04-24 01:43 | 18.26741 | -64.48079 | 8998 ft | 132 kts | 97° |
| 2026-04-24 01:43 | 18.26584 | -64.47121 | 8999 ft | 132 kts | 97° |
| 2026-04-24 01:44 | 18.26427 | -64.46174 | 8997 ft | 131 kts | 97° |
| 2026-04-24 01:44 | 18.26272 | -64.45230 | 8997 ft | 131 kts | 97° |
| 2026-04-24 01:44 | 18.26116 | -64.44289 | 8997 ft | 131 kts | 97° |
| 2026-04-24 01:44 | 18.25961 | -64.43344 | 8996 ft | 131 kts | 97° |
| 2026-04-24 01:45 | 18.25803 | -64.42392 | 8995 ft | 132 kts | 97° |
| 2026-04-24 01:45 | 18.25646 | -64.41441 | 8996 ft | 131 kts | 97° |
| 2026-04-24 01:45 | 18.25489 | -64.40488 | 8997 ft | 132 kts | 97° |
| 2026-04-24 01:45 | 18.25332 | -64.39535 | 8998 ft | 132 kts | 97° |
| 2026-04-24 01:46 | 18.25175 | -64.38590 | 8998 ft | 132 kts | 97° |
| 2026-04-24 01:46 | 18.25016 | -64.37631 | 8997 ft | 132 kts | 97° |
| 2026-04-24 01:46 | 18.24858 | -64.36676 | 8996 ft | 132 kts | 97° |
| 2026-04-24 01:46 | 18.24700 | -64.35725 | 8998 ft | 132 kts | 97° |
| 2026-04-24 01:47 | 18.24539 | -64.34750 | 8997 ft | 132 kts | 97° |
| 2026-04-24 01:47 | 18.24382 | -64.33803 | 8998 ft | 132 kts | 97° |
| 2026-04-24 01:47 | 18.24223 | -64.32844 | 8997 ft | 132 kts | 97° |
| 2026-04-24 01:47 | 18.24066 | -64.31895 | 8996 ft | 132 kts | 97° |
| 2026-04-24 01:48 | 18.23909 | -64.30945 | 8996 ft | 131 kts | 97° |
| 2026-04-24 01:48 | 18.23751 | -64.29997 | 8996 ft | 132 kts | 98° |
| 2026-04-24 01:48 | 18.23595 | -64.29057 | 8998 ft | 131 kts | 97° |
| 2026-04-24 01:48 | 18.23437 | -64.28103 | 8998 ft | 131 kts | 97° |
| 2026-04-24 01:49 | 18.23281 | -64.27167 | 8997 ft | 132 kts | 98° |
| 2026-04-24 01:49 | 18.23121 | -64.26203 | 8997 ft | 132 kts | 97° |
| 2026-04-24 01:49 | 18.22965 | -64.25257 | 8996 ft | 133 kts | 98° |
| 2026-04-24 01:49 | 18.22802 | -64.24287 | 8997 ft | 133 kts | 97° |
| 2026-04-24 01:50 | 18.22646 | -64.23341 | 8996 ft | 133 kts | 97° |
| 2026-04-24 01:50 | 18.22487 | -64.22388 | 8995 ft | 132 kts | 97° |
| 2026-04-24 01:50 | 18.22328 | -64.21429 | 8995 ft | 132 kts | 97° |
| 2026-04-24 01:50 | 18.22169 | -64.20474 | 8995 ft | 132 kts | 97° |
| 2026-04-24 01:51 | 18.22012 | -64.19535 | 8995 ft | 131 kts | 97° |
| 2026-04-24 01:51 | 18.21853 | -64.18579 | 8995 ft | 131 kts | 97° |
| 2026-04-24 01:51 | 18.21696 | -64.17638 | 8996 ft | 131 kts | 97° |
| 2026-04-24 01:51 | 18.21538 | -64.16682 | 8995 ft | 132 kts | 98° |
| 2026-04-24 01:52 | 18.21380 | -64.15738 | 8995 ft | 132 kts | 97° |
| 2026-04-24 01:52 | 18.21221 | -64.14777 | 8995 ft | 133 kts | 97° |
| 2026-04-24 01:52 | 18.21060 | -64.13819 | 8994 ft | 133 kts | 98° |
| 2026-04-24 01:52 | 18.20901 | -64.12858 | 8994 ft | 133 kts | 98° |
| 2026-04-24 01:53 | 18.20740 | -64.11899 | 8994 ft | 133 kts | 97° |
| 2026-04-24 01:53 | 18.20581 | -64.10950 | 8995 ft | 133 kts | 98° |
| 2026-04-24 01:53 | 18.20419 | -64.09981 | 8996 ft | 133 kts | 97° |
| 2026-04-24 01:53 | 18.20261 | -64.09028 | 8995 ft | 133 kts | 98° |
| 2026-04-24 01:54 | 18.20100 | -64.08071 | 8996 ft | 132 kts | 97° |
| 2026-04-24 01:54 | 18.19941 | -64.07117 | 8995 ft | 132 kts | 97° |
| 2026-04-24 01:54 | 18.19783 | -64.06168 | 8993 ft | 132 kts | 97° |
| 2026-04-24 01:54 | 18.19623 | -64.05213 | 8994 ft | 131 kts | 97° |
| 2026-04-24 01:55 | 18.19466 | -64.04268 | 8995 ft | 132 kts | 97° |
| 2026-04-24 01:55 | 18.19307 | -64.03321 | 8996 ft | 132 kts | 98° |
| 2026-04-24 01:55 | 18.19147 | -64.02367 | 8996 ft | 132 kts | 97° |
| 2026-04-24 01:55 | 18.18987 | -64.01406 | 8995 ft | 133 kts | 98° |
| 2026-04-24 01:56 | 18.18825 | -64.00446 | 8995 ft | 133 kts | 97° |
| 2026-04-24 01:56 | 18.18665 | -63.99486 | 8997 ft | 133 kts | 98° |
| 2026-04-24 01:56 | 18.18506 | -63.98538 | 8999 ft | 133 kts | 97° |
| 2026-04-24 01:56 | 18.18344 | -63.97576 | 9000 ft | 133 kts | 97° |
| 2026-04-24 01:57 | 18.18184 | -63.96621 | 8998 ft | 132 kts | 97° |
| 2026-04-24 01:57 | 18.18024 | -63.95667 | 9000 ft | 132 kts | 97° |
| 2026-04-24 01:57 | 18.17865 | -63.94721 | 8999 ft | 132 kts | 97° |
| 2026-04-24 01:57 | 18.17704 | -63.93761 | 9000 ft | 131 kts | 97° |
| 2026-04-24 01:58 | 18.17546 | -63.92818 | 8996 ft | 131 kts | 97° |
| 2026-04-24 01:58 | 18.17387 | -63.91867 | 8999 ft | 131 kts | 97° |
| 2026-04-24 01:58 | 18.17229 | -63.90924 | 9000 ft | 131 kts | 97° |
| 2026-04-24 01:58 | 18.17070 | -63.89980 | 9000 ft | 131 kts | 97° |
| 2026-04-24 01:59 | 18.16910 | -63.89022 | 8999 ft | 132 kts | 97° |
| 2026-04-24 01:59 | 18.16750 | -63.88072 | 8999 ft | 132 kts | 98° |
| 2026-04-24 01:59 | 18.16589 | -63.87121 | 9000 ft | 132 kts | 97° |
| 2026-04-24 01:59 | 18.16428 | -63.86161 | 8999 ft | 132 kts | 97° |
| 2026-04-24 02:00 | 18.16269 | -63.85214 | 8999 ft | 132 kts | 97° |
| 2026-04-24 02:00 | 18.16108 | -63.84257 | 8998 ft | 132 kts | 97° |
| 2026-04-24 02:00 | 18.15949 | -63.83316 | 9000 ft | 131 kts | 97° |
| 2026-04-24 02:00 | 18.15789 | -63.82364 | 8998 ft | 131 kts | 97° |
| 2026-04-24 02:01 | 18.15629 | -63.81417 | 8998 ft | 131 kts | 97° |
| 2026-04-24 02:01 | 18.15470 | -63.80473 | 8995 ft | 131 kts | 97° |
| 2026-04-24 02:01 | 18.15310 | -63.79523 | 8995 ft | 131 kts | 97° |
| 2026-04-24 02:01 | 18.15152 | -63.78588 | 8997 ft | 131 kts | 97° |
| 2026-04-24 02:02 | 18.14991 | -63.77631 | 8998 ft | 132 kts | 97° |
| 2026-04-24 02:02 | 18.14832 | -63.76685 | 8998 ft | 132 kts | 98° |
| 2026-04-24 02:02 | 18.14671 | -63.75732 | 9000 ft | 133 kts | 98° |
| 2026-04-24 02:02 | 18.14507 | -63.74766 | 9004 ft | 132 kts | 97° |
| 2026-04-24 02:03 | 18.14185 | -63.72860 | 9012 ft | 132 kts | 97° |
| 2026-04-24 02:03 | 18.14025 | -63.71913 | 9015 ft | 132 kts | 97° |
| 2026-04-24 02:03 | 18.13862 | -63.70950 | 9016 ft | 132 kts | 97° |
| 2026-04-24 02:04 | 18.13702 | -63.70001 | 9016 ft | 132 kts | 97° |
| 2026-04-24 02:04 | 18.13539 | -63.69040 | 9016 ft | 132 kts | 97° |
| 2026-04-24 02:04 | 18.13378 | -63.68089 | 9016 ft | 131 kts | 97° |
| 2026-04-24 02:04 | 18.13219 | -63.67148 | 9015 ft | 131 kts | 97° |
| 2026-04-24 02:05 | 18.13061 | -63.66208 | 9016 ft | 131 kts | 97° |
| 2026-04-24 02:05 | 18.12902 | -63.65263 | 9015 ft | 131 kts | 97° |
| 2026-04-24 02:05 | 18.12743 | -63.64312 | 9016 ft | 131 kts | 97° |
| 2026-04-24 02:05 | 18.12585 | -63.63374 | 9015 ft | 131 kts | 97° |
| 2026-04-24 02:06 | 18.12425 | -63.62421 | 9016 ft | 132 kts | 97° |
| 2026-04-24 02:06 | 18.12265 | -63.61468 | 9016 ft | 132 kts | 97° |
| 2026-04-24 02:06 | 18.12105 | -63.60516 | 9016 ft | 132 kts | 97° |
| 2026-04-24 02:06 | 18.11945 | -63.59566 | 9016 ft | 132 kts | 97° |
| 2026-04-24 02:07 | 18.11783 | -63.58602 | 9016 ft | 132 kts | 97° |
| 2026-04-24 02:07 | 18.11624 | -63.57658 | 9016 ft | 132 kts | 97° |
| 2026-04-24 02:07 | 18.11465 | -63.56714 | 9015 ft | 131 kts | 97° |
| 2026-04-24 02:07 | 18.11307 | -63.55771 | 9013 ft | 131 kts | 97° |
| 2026-04-24 02:08 | 18.11146 | -63.54818 | 9012 ft | 131 kts | 97° |